createdAt,value
2018-01-22T00:00:17.595Z,97510.42
2018-01-22T00:02:48.730Z,97505.85
2018-01-22T00:05:19.755Z,97501.08
2018-01-22T00:07:50.963Z,97491.59
2018-01-22T00:10:22.041Z,97485.82
2018-01-22T00:12:53.148Z,97479.59
2018-01-22T00:15:24.200Z,97469.34
2018-01-22T00:17:55.324Z,97472.87
2018-01-22T00:20:26.446Z,97472.63
2018-01-22T00:22:57.528Z,97469.79
2018-01-22T00:25:28.638Z,97469.55
2018-01-22T00:27:59.732Z,97461.77
2018-01-22T00:30:30.948Z,97466.28
2018-01-22T00:33:02.022Z,97458.23
2018-01-22T00:35:33.368Z,97449.77
2018-01-22T00:38:04.403Z,97442.77
2018-01-22T00:40:35.542Z,97441.67
2018-01-22T00:43:06.626Z,97436.10
2018-01-22T00:45:37.721Z,97429.89
2018-01-22T00:48:08.843Z,97430.22
2018-01-22T00:50:39.892Z,97431.13
2018-01-22T00:53:11.051Z,97427.52
2018-01-22T00:55:42.094Z,97425.33
2018-01-22T00:58:13.170Z,97424.98
2018-01-22T01:00:44.230Z,97412.58
2018-01-22T01:03:15.330Z,97408.78
2018-01-22T01:05:46.389Z,97409.90
2018-01-22T01:08:17.512Z,97406.39
2018-01-22T01:10:48.591Z,97403.42
2018-01-22T01:13:19.713Z,97406.02
2018-01-22T01:15:50.756Z,97399.72
2018-01-22T01:18:21.880Z,97392.81
2018-01-22T01:20:52.961Z,97393.90
2018-01-22T01:23:24.122Z,97393.51
2018-01-22T01:25:55.183Z,97383.74
2018-01-22T01:28:26.273Z,97389.33
2018-01-22T01:30:57.395Z,97383.62
2018-01-22T01:33:28.823Z,97379.31
2018-01-22T01:35:59.932Z,97375.73
2018-01-22T01:38:31.055Z,97368.34
2018-01-22T01:41:02.190Z,97368.72
2018-01-22T01:43:33.284Z,97364.63
2018-01-22T01:46:04.384Z,97367.14
2018-01-22T01:48:35.482Z,97357.83
2018-01-22T01:51:06.531Z,97356.34
2018-01-22T01:53:37.644Z,97349.25
2018-01-22T01:56:08.682Z,97346.84
2018-01-22T01:58:39.816Z,97346.95
2018-01-22T02:01:10.867Z,97336.73
2018-01-22T02:03:41.983Z,97326.94
2018-01-22T02:06:13.065Z,97315.53
2018-01-22T02:08:44.318Z,97309.92
2018-01-22T02:11:15.387Z,97313.20
2018-01-22T02:13:46.510Z,97307.19
2018-01-22T02:16:17.543Z,97313.68
2018-01-22T02:18:48.628Z,97306.07
2018-01-22T02:21:19.828Z,97303.39
2018-01-22T02:23:50.923Z,97294.79
2018-01-22T02:26:22.017Z,97287.64
2018-01-22T02:28:53.089Z,97289.14
2018-01-22T02:31:24.181Z,97285.94
2018-01-22T02:33:55.296Z,97288.62
2018-01-22T02:36:26.384Z,97283.64
2018-01-22T02:38:57.918Z,97275.80
2018-01-22T02:41:29.144Z,97267.10
2018-01-22T02:44:00.254Z,97270.30
2018-01-22T02:46:31.293Z,97275.84
2018-01-22T02:49:02.604Z,97268.92
2018-01-22T02:51:33.679Z,97263.02
2018-01-22T02:54:04.794Z,97272.32
2018-01-22T02:56:35.906Z,97262.23
2018-01-22T02:59:07.026Z,97261.16
2018-01-22T03:01:38.099Z,97252.77
2018-01-22T03:04:09.258Z,97256.66
2018-01-22T03:06:40.340Z,97261.38
2018-01-22T03:09:11.666Z,97271.27
2018-01-22T03:11:42.683Z,97266.27
2018-01-22T03:14:13.771Z,97273.78
2018-01-22T03:16:44.848Z,97265.16
2018-01-22T03:19:15.978Z,97260.65
2018-01-22T03:21:47.047Z,97260.69
2018-01-22T03:24:18.149Z,97259.56
2018-01-22T03:26:49.257Z,97256.37
2018-01-22T03:29:20.367Z,97251.86
2018-01-22T03:31:51.457Z,97242.35
2018-01-22T03:34:22.557Z,97232.35
2018-01-22T03:36:53.626Z,97226.84
2018-01-22T03:39:24.738Z,97225.97
2018-01-22T03:41:55.835Z,97223.08
2018-01-22T03:44:26.913Z,97225.20
2018-01-22T03:46:58.044Z,97217.48
2018-01-22T03:49:29.101Z,97220.08
2018-01-22T03:52:00.210Z,97217.66
2018-01-22T03:54:31.237Z,97217.88
2018-01-22T03:57:02.342Z,97209.61
2018-01-22T03:59:33.426Z,97202.89
2018-01-22T04:02:04.531Z,97193.68
2018-01-22T04:04:35.607Z,97199.56
2018-01-22T04:07:06.770Z,97201.70
2018-01-22T04:09:38.968Z,97209.50
2018-01-22T04:12:10.044Z,97200.84
2018-01-22T04:14:41.098Z,97186.44
2018-01-22T04:17:12.153Z,97185.92
2018-01-22T04:19:43.334Z,97189.02
2018-01-22T04:22:14.395Z,97179.73
2018-01-22T04:24:45.450Z,97187.58
2018-01-22T04:27:16.570Z,97187.77
2018-01-22T04:29:47.619Z,97179.27
2018-01-22T04:32:18.711Z,97182.38
2018-01-22T04:34:49.779Z,97175.38
2018-01-22T04:37:20.864Z,97187.67
2018-01-22T04:39:51.924Z,97192.57
2018-01-22T04:42:23.006Z,97197.05
2018-01-22T04:44:54.097Z,97193.23
2018-01-22T04:47:25.169Z,97195.91
2018-01-22T04:49:56.253Z,97195.98
2018-01-22T04:52:27.343Z,97195.41
2018-01-22T04:54:58.381Z,97198.01
2018-01-22T04:57:29.474Z,97188.93
2018-01-22T05:00:00.558Z,97182.13
2018-01-22T05:02:31.753Z,97179.23
2018-01-22T05:05:03.175Z,97174.66
2018-01-22T05:07:34.238Z,97166.92
2018-01-22T05:10:05.351Z,97164.93
2018-01-22T05:12:36.448Z,97166.50
2018-01-22T05:15:07.505Z,97149.58
2018-01-22T05:17:38.619Z,97158.15
2018-01-22T05:20:09.637Z,97154.64
2018-01-22T05:22:40.690Z,97155.80
2018-01-22T05:25:11.718Z,97153.43
2018-01-22T05:27:42.851Z,97151.10
2018-01-22T05:30:13.952Z,97154.66
2018-01-22T05:32:44.986Z,97155.86
2018-01-22T05:35:16.077Z,97163.66
2018-01-22T05:37:47.163Z,97152.35
2018-01-22T05:40:18.259Z,97154.38
2018-01-22T05:42:49.663Z,97147.17
2018-01-22T05:45:20.795Z,97150.08
2018-01-22T05:47:51.859Z,97144.70
2018-01-22T05:50:22.984Z,97147.09
2018-01-22T05:52:54.080Z,97153.12
2018-01-22T05:55:25.198Z,97145.55
2018-01-22T05:57:56.303Z,97146.02
2018-01-22T06:00:27.419Z,97142.80
2018-01-22T06:02:58.482Z,97145.90
2018-01-22T06:05:29.652Z,97145.20
2018-01-22T06:08:00.803Z,97140.59
2018-01-22T06:10:31.893Z,97141.80
2018-01-22T06:13:03.093Z,97139.88
2018-01-22T06:15:34.186Z,97134.10
2018-01-22T06:18:05.301Z,97129.10
2018-01-22T06:20:36.358Z,97128.73
2018-01-22T06:23:07.441Z,97121.73
2018-01-22T06:25:38.581Z,97121.95
2018-01-22T06:28:09.666Z,97124.87
2018-01-22T06:30:40.826Z,97118.47
2018-01-22T06:33:11.913Z,97114.80
2018-01-22T06:35:43.015Z,97120.97
2018-01-22T06:38:14.074Z,97110.59
2018-01-22T06:40:45.160Z,97118.41
2018-01-22T06:43:16.214Z,97117.97
2018-01-22T06:45:47.303Z,97116.67
2018-01-22T06:48:18.374Z,97118.27
2018-01-22T06:50:49.510Z,97119.45
2018-01-22T06:53:20.577Z,97112.39
2018-01-22T06:55:51.671Z,97116.37
2018-01-22T06:58:22.694Z,97114.48
2018-01-22T07:00:53.747Z,97112.16
2018-01-22T07:03:24.826Z,97108.48
2018-01-22T07:06:03.033Z,97104.93
2018-01-22T07:08:34.100Z,97106.39
2018-01-22T07:11:05.169Z,97103.77
2018-01-22T07:13:36.276Z,97097.66
2018-01-22T07:16:07.325Z,97092.79
2018-01-22T07:18:38.426Z,97107.52
2018-01-22T07:21:09.464Z,97105.02
2018-01-22T07:23:40.555Z,97103.71
2018-01-22T07:26:12.692Z,97103.63
2018-01-22T07:28:43.764Z,97098.78
2018-01-22T07:31:14.898Z,97092.83
2018-01-22T07:33:45.934Z,97085.66
2018-01-22T07:36:17.026Z,97079.25
2018-01-22T07:38:48.109Z,97077.10
2018-01-22T07:41:19.321Z,97080.45
2018-01-22T07:43:50.348Z,97077.67
2018-01-22T07:46:21.415Z,97072.76
2018-01-22T07:48:52.466Z,97078.84
2018-01-22T07:51:23.598Z,97079.42
2018-01-22T07:53:54.689Z,97070.94
2018-01-22T07:56:25.764Z,97071.95
2018-01-22T07:58:56.872Z,97065.86
2018-01-22T08:01:27.972Z,97071.69
2018-01-22T08:03:59.050Z,97070.70
2018-01-22T08:06:30.124Z,97065.47
2018-01-22T08:09:01.188Z,97060.03
2018-01-22T08:11:32.283Z,97056.77
2018-01-22T08:14:03.360Z,97046.04
2018-01-22T08:16:34.485Z,97035.74
2018-01-22T08:19:05.581Z,97044.55
2018-01-22T08:21:36.669Z,97041.46
2018-01-22T08:24:07.702Z,97043.75
2018-01-22T08:26:38.830Z,97039.52
2018-01-22T08:29:09.866Z,97047.64
2018-01-22T08:31:41.006Z,97034.20
2018-01-22T08:34:12.117Z,97028.86
2018-01-22T08:36:43.234Z,97028.17
2018-01-22T08:39:14.316Z,97022.63
2018-01-22T08:41:45.915Z,97024.67
2018-01-22T08:44:17.898Z,97028.26
2018-01-22T08:46:48.996Z,97022.70
2018-01-22T08:49:20.040Z,97014.38
2018-01-22T08:51:51.160Z,97023.64
2018-01-22T08:54:22.293Z,97018.78
2018-01-22T08:56:53.424Z,97022.52
2018-01-22T08:59:24.519Z,97028.47
2018-01-22T09:01:55.581Z,97025.30
2018-01-22T09:04:27.630Z,97029.91
2018-01-22T09:06:58.763Z,97020.70
2018-01-22T09:09:29.851Z,97019.34
2018-01-22T09:12:00.955Z,97020.93
2018-01-22T09:14:32.004Z,97022.34
2018-01-22T09:17:03.156Z,97019.84
2018-01-22T09:19:34.198Z,97008.05
2018-01-22T09:22:06.030Z,97007.35
2018-01-22T09:24:37.089Z,97002.52
2018-01-22T09:27:08.144Z,97004.91
2018-01-22T09:29:39.258Z,97009.27
2018-01-22T09:32:10.371Z,97003.80
2018-01-22T09:34:41.462Z,96989.11
2018-01-22T09:37:12.724Z,96978.51
2018-01-22T09:39:43.838Z,96973.13
2018-01-22T09:42:14.945Z,96979.65
2018-01-22T09:44:46.043Z,96970.80
2018-01-22T09:47:17.120Z,96965.80
2018-01-22T09:49:48.216Z,96954.55
2018-01-22T09:52:19.326Z,96954.27
2018-01-22T09:54:50.614Z,96950.84
2018-01-22T09:57:21.681Z,96946.27
2018-01-22T09:59:52.805Z,96939.48
2018-01-22T10:02:23.914Z,96945.22
2018-01-22T10:04:55.042Z,96947.52
2018-01-22T10:07:26.130Z,96941.70
2018-01-22T10:09:57.250Z,96938.22
2018-01-22T10:12:28.355Z,96942.46
2018-01-22T10:14:59.453Z,96947.98
2018-01-22T10:17:30.876Z,96955.51
2018-01-22T10:20:02.006Z,96957.25
2018-01-22T10:22:33.104Z,96953.89
2018-01-22T10:25:04.227Z,96952.41
2018-01-22T10:27:35.310Z,96951.77
2018-01-22T10:30:06.394Z,96947.33
2018-01-22T10:32:37.476Z,96941.59
2018-01-22T10:35:08.628Z,96930.97
2018-01-22T10:37:39.772Z,96925.81
2018-01-22T10:40:10.818Z,96933.58
2018-01-22T10:42:41.934Z,96930.17
2018-01-22T10:45:13.010Z,96937.05
2018-01-22T10:47:44.124Z,96934.87
2018-01-22T10:50:15.253Z,96929.95
2018-01-22T10:52:46.326Z,96928.13
2018-01-22T10:55:17.456Z,96923.32
2018-01-22T10:57:48.517Z,96913.73
2018-01-22T11:00:19.594Z,96917.32
2018-01-22T11:02:50.715Z,96915.00
2018-01-22T11:05:21.758Z,96909.20
2018-01-22T11:07:52.884Z,96904.66
2018-01-22T11:10:24.018Z,96890.66
2018-01-22T11:12:55.129Z,96888.20
2018-01-22T11:15:32.292Z,96895.30
2018-01-22T11:18:03.473Z,96885.37
2018-01-22T11:23:10.566Z,96887.95
2018-01-22T11:25:41.630Z,96887.57
2018-01-22T11:28:12.733Z,96882.21
2018-01-22T11:30:43.930Z,96875.28
2018-01-22T11:33:15.032Z,96874.22
2018-01-22T11:35:46.074Z,96866.45
2018-01-22T11:38:17.182Z,96860.77
2018-01-22T11:40:48.276Z,96870.70
2018-01-22T11:43:19.388Z,96856.89
2018-01-22T11:45:50.501Z,96862.98
2018-01-22T11:48:21.605Z,96862.22
2018-01-22T11:50:52.669Z,96857.80
2018-01-22T11:53:23.780Z,96858.18
2018-01-22T11:55:54.911Z,96873.25
2018-01-22T11:58:25.992Z,96850.41
2018-01-22T12:00:57.084Z,96862.82
2018-01-22T12:03:28.821Z,96853.46
2018-01-22T12:05:59.872Z,96843.78
2018-01-22T12:08:30.963Z,96843.14
2018-01-22T12:11:02.049Z,96837.41
2018-01-22T12:13:33.119Z,96839.90
2018-01-22T12:16:04.254Z,96845.13
2018-01-22T12:18:35.374Z,96847.07
2018-01-22T12:21:06.530Z,96843.38
2018-01-22T12:23:37.641Z,96844.97
2018-01-22T12:26:08.691Z,96844.39
2018-01-22T12:28:39.760Z,96855.48
2018-01-22T12:31:10.873Z,96852.20
2018-01-22T12:33:41.957Z,96850.23
2018-01-22T12:36:13.026Z,96855.03
2018-01-22T12:38:44.705Z,96857.83
2018-01-22T12:41:15.766Z,96861.01
2018-01-22T12:43:46.796Z,96856.17
2018-01-22T12:46:17.894Z,96855.88
2018-01-22T12:48:49.102Z,96853.11
2018-01-22T12:51:20.159Z,96850.85
2018-01-22T12:53:51.225Z,96847.38
2018-01-22T12:56:22.639Z,96843.58
2018-01-22T12:58:53.748Z,96839.06
2018-01-22T13:01:24.864Z,96835.18
2018-01-22T13:03:55.895Z,96838.55
2018-01-22T13:06:26.982Z,96837.41
2018-01-22T13:08:58.049Z,96834.67
2018-01-22T13:11:29.291Z,96841.05
2018-01-22T13:14:00.319Z,96836.25
2018-01-22T13:16:31.434Z,96836.54
2018-01-22T13:19:02.508Z,96832.67
2018-01-22T13:21:33.577Z,96832.85
2018-01-22T13:24:04.667Z,96833.41
2018-01-22T13:26:35.766Z,96835.73
2018-01-22T13:29:06.898Z,96831.67
2018-01-22T13:31:38.026Z,96829.45
2018-01-22T13:34:09.079Z,96829.36
2018-01-22T13:36:40.190Z,96836.14
2018-01-22T13:39:11.272Z,96831.14
2018-01-22T13:41:42.394Z,96840.22
2018-01-22T13:44:13.433Z,96842.44
2018-01-22T13:46:44.517Z,96838.25
2018-01-22T13:49:15.609Z,96841.91
2018-01-22T13:51:46.741Z,96844.19
2018-01-22T13:54:17.834Z,96836.91
2018-01-22T13:56:48.946Z,96833.34
2018-01-22T13:59:20.416Z,96835.38
2018-01-22T14:01:51.505Z,96836.12
2018-01-22T14:04:22.612Z,96839.18
2018-01-22T14:06:53.694Z,96839.53
2018-01-22T14:09:24.818Z,96838.39
2018-01-22T14:11:55.846Z,96838.84
2018-01-22T14:14:26.985Z,96841.56
2018-01-22T14:16:58.084Z,96845.09
2018-01-22T14:19:30.663Z,96849.60
2018-01-22T14:22:01.768Z,96849.47
2018-01-22T14:24:32.851Z,96843.20
2018-01-22T14:27:03.954Z,96842.48
2018-01-22T14:29:34.994Z,96847.45
2018-01-22T14:32:06.091Z,96847.45
2018-01-22T14:34:37.181Z,96849.94
2018-01-22T14:37:08.314Z,96843.59
2018-01-22T14:39:39.448Z,96846.88
2018-01-22T14:42:10.536Z,96847.66
2018-01-22T14:44:41.605Z,96853.52
2018-01-22T14:47:12.714Z,96847.70
2018-01-22T14:49:43.812Z,96864.12
2018-01-22T14:52:14.844Z,96866.45
2018-01-22T14:54:45.921Z,96866.95
2018-01-22T14:57:16.959Z,96862.59
2018-01-22T14:59:48.185Z,96864.08
2018-01-22T15:02:19.231Z,96864.90
2018-01-22T15:04:50.369Z,96864.61
2018-01-22T15:07:21.455Z,96869.42
2018-01-22T15:09:52.527Z,96869.64
2018-01-22T15:12:23.597Z,96873.31
2018-01-22T15:14:54.745Z,96880.38
2018-01-22T15:17:25.847Z,96876.63
2018-01-22T15:19:57.005Z,96879.81
2018-01-22T15:22:28.146Z,96877.03
2018-01-22T15:24:59.326Z,96876.20
2018-01-22T15:27:30.450Z,96875.23
2018-01-22T15:30:01.572Z,96878.28
2018-01-22T15:32:32.635Z,96884.19
2018-01-22T15:35:03.727Z,96887.71
2018-01-22T15:37:34.907Z,96888.31
2018-01-22T15:40:06.027Z,96892.72
2018-01-22T15:42:37.139Z,96905.33
2018-01-22T15:45:08.218Z,96900.59
2018-01-22T15:47:39.307Z,96902.62
2018-01-22T15:50:10.413Z,96902.06
2018-01-22T15:52:41.547Z,96904.50
2018-01-22T15:55:12.644Z,96904.95
2018-01-22T15:57:43.772Z,96905.04
2018-01-22T16:00:14.959Z,96902.37
2018-01-22T16:02:46.052Z,96910.20
2018-01-22T16:05:17.158Z,96904.63
2018-01-22T16:07:48.292Z,96914.97
2018-01-22T16:10:19.372Z,96918.30
2018-01-22T16:12:50.509Z,96922.63
2018-01-22T16:15:21.575Z,96932.58
2018-01-22T16:17:52.703Z,96921.53
2018-01-22T16:20:23.860Z,96918.58
2018-01-22T16:22:54.953Z,96927.55
2018-01-22T16:25:26.086Z,96935.55
2018-01-22T16:27:57.192Z,96931.41
2018-01-22T16:30:28.304Z,96931.25
2018-01-22T16:32:59.343Z,96935.95
2018-01-22T16:35:30.417Z,96937.17
2018-01-22T16:38:01.572Z,96945.91
2018-01-22T16:40:32.631Z,96944.26
2018-01-22T16:43:03.814Z,96948.53
2018-01-22T16:45:34.882Z,96945.45
2018-01-22T16:48:05.979Z,96949.36
2018-01-22T16:50:37.061Z,96956.05
2018-01-22T16:53:08.795Z,96965.40
2018-01-22T16:55:39.903Z,96975.33
2018-01-22T16:58:10.988Z,96981.07
2018-01-22T17:00:42.073Z,96985.83
2018-01-22T17:03:13.128Z,96989.97
2018-01-22T17:05:44.316Z,96986.80
2018-01-22T17:08:15.400Z,96990.79
2018-01-22T17:10:47.278Z,96992.60
2018-01-22T17:13:18.347Z,97003.05
2018-01-22T17:15:49.461Z,97004.14
2018-01-22T17:18:20.501Z,96993.95
2018-01-22T17:20:52.948Z,97001.12
2018-01-22T17:23:24.043Z,96993.20
2018-01-22T17:25:55.122Z,96990.04
2018-01-22T17:28:26.175Z,96993.22
2018-01-22T17:30:57.310Z,97000.43
2018-01-22T17:33:28.409Z,97007.61
2018-01-22T17:35:59.525Z,97010.76
2018-01-22T17:38:30.599Z,97010.62
2018-01-22T17:41:01.709Z,97019.11
2018-01-22T17:43:32.840Z,97019.05
2018-01-22T17:46:03.938Z,97014.80
2018-01-22T17:48:35.191Z,97017.41
2018-01-22T17:51:06.288Z,97023.54
2018-01-22T17:53:37.344Z,97023.36
2018-01-22T17:56:08.428Z,97022.63
2018-01-22T17:58:39.693Z,97030.62
2018-01-22T18:01:10.826Z,97029.37
2018-01-22T18:03:41.864Z,97034.54
2018-01-22T18:06:13.025Z,97039.25
2018-01-22T18:08:44.102Z,97042.66
2018-01-22T18:11:15.208Z,97047.33
2018-01-22T18:13:46.273Z,97052.70
2018-01-22T18:16:17.366Z,97062.38
2018-01-22T18:18:48.471Z,97060.41
2018-01-22T18:21:19.586Z,97056.64
2018-01-22T18:23:50.678Z,97063.47
2018-01-22T18:26:21.778Z,97069.70
2018-01-22T18:28:52.799Z,97073.23
2018-01-22T18:31:23.916Z,97076.83
2018-01-22T18:33:54.957Z,97082.38
2018-01-22T18:36:26.049Z,97094.25
2018-01-22T18:38:58.398Z,97100.89
2018-01-22T18:41:29.464Z,97102.67
2018-01-22T18:44:00.569Z,97105.97
2018-01-22T18:46:31.673Z,97111.01
2018-01-22T18:49:02.730Z,97117.33
2018-01-22T18:51:33.776Z,97119.64
2018-01-22T18:54:04.824Z,97133.11
2018-01-22T18:56:35.926Z,97130.56
2018-01-22T18:59:07.034Z,97140.01
2018-01-22T19:01:45.153Z,97150.00
2018-01-22T19:04:16.233Z,97161.48
2018-01-22T19:06:47.664Z,97170.77
2018-01-22T19:09:18.768Z,97181.48
2018-01-22T19:11:49.885Z,97187.51
2018-01-22T19:14:21.022Z,97186.16
2018-01-22T19:16:52.110Z,97191.43
2018-01-22T19:19:23.202Z,97193.90
2018-01-22T19:21:54.280Z,97198.08
2018-01-22T19:24:25.392Z,97198.08
2018-01-22T19:26:56.464Z,97202.78
2018-01-22T19:29:27.518Z,97215.05
2018-01-22T19:31:58.583Z,97226.84
2018-01-22T19:34:29.655Z,97232.74
2018-01-22T19:37:00.757Z,97245.48
2018-01-22T19:39:31.793Z,97242.77
2018-01-22T19:42:02.946Z,97245.59
2018-01-22T19:44:33.980Z,97253.38
2018-01-22T19:47:05.081Z,97251.80
2018-01-22T19:49:36.162Z,97254.95
2018-01-22T19:52:07.255Z,97264.80
2018-01-22T19:54:38.356Z,97266.53
2018-01-22T19:57:09.456Z,97258.67
2018-01-22T19:59:40.559Z,97264.17
2018-01-22T20:02:11.647Z,97256.03
2018-01-22T20:04:42.711Z,97269.36
2018-01-22T20:07:13.865Z,97276.00
2018-01-22T20:09:45.004Z,97274.27
2018-01-22T20:12:16.074Z,97275.97
2018-01-22T20:14:47.107Z,97279.89
2018-01-22T20:17:18.410Z,97288.95
2018-01-22T20:19:49.487Z,97301.69
2018-01-22T20:22:20.561Z,97301.00
2018-01-22T20:24:51.673Z,97307.31
2018-01-22T20:27:22.728Z,97316.97
2018-01-22T20:29:53.806Z,97330.05
2018-01-22T20:32:24.892Z,97330.17
2018-01-22T20:34:55.984Z,97337.77
2018-01-22T20:37:27.101Z,97340.80
2018-01-22T20:39:58.171Z,97345.80
2018-01-22T20:42:29.246Z,97340.19
2018-01-22T20:45:00.308Z,97340.37
2018-01-22T20:47:31.531Z,97334.20
2018-01-22T20:50:02.632Z,97340.34
2018-01-22T20:55:01.220Z,97344.83
2018-01-22T20:57:32.314Z,97343.63
2018-01-22T21:00:03.422Z,97357.80
2018-01-22T21:02:34.481Z,97362.33
2018-01-22T21:05:05.527Z,97381.98
2018-01-22T21:07:36.585Z,97381.33
2018-01-22T21:10:07.654Z,97387.72
2018-01-22T21:12:38.714Z,97389.14
2018-01-22T21:15:09.773Z,97395.16
2018-01-22T21:17:40.841Z,97401.87
2018-01-22T21:20:11.946Z,97407.09
2018-01-22T21:22:43.033Z,97408.36
2018-01-22T21:25:15.913Z,97417.59
2018-01-22T21:27:46.935Z,97421.66
2018-01-22T21:30:18.040Z,97419.48
2018-01-22T21:32:49.105Z,97422.05
2018-01-22T21:35:20.212Z,97417.46
2018-01-22T21:37:51.258Z,97437.03
2018-01-22T21:40:22.334Z,97441.61
2018-01-22T21:42:53.390Z,97448.13
2018-01-22T21:45:24.503Z,97443.05
2018-01-22T21:47:56.367Z,97454.91
2018-01-22T21:50:27.653Z,97464.77
2018-01-22T21:52:58.723Z,97459.52
2018-01-22T21:55:29.839Z,97465.66
2018-01-22T21:58:00.933Z,97478.71
2018-01-22T22:00:31.997Z,97489.27
2018-01-22T22:03:03.112Z,97497.91
2018-01-22T22:05:34.182Z,97501.92
2018-01-22T22:08:05.296Z,97521.66
2018-01-22T22:10:36.372Z,97525.02
2018-01-22T22:13:07.446Z,97530.89
2018-01-22T22:15:38.591Z,97523.88
2018-01-22T22:18:09.663Z,97530.50
2018-01-22T22:20:40.783Z,97533.70
2018-01-22T22:23:11.876Z,97527.94
2018-01-22T22:25:42.972Z,97538.02
2018-01-22T22:28:14.024Z,97559.22
2018-01-22T22:30:45.129Z,97566.72
2018-01-22T22:33:16.197Z,97566.05
2018-01-22T22:35:47.319Z,97578.84
2018-01-22T22:38:18.397Z,97596.97
2018-01-22T22:40:49.514Z,97612.20
2018-01-22T22:43:20.604Z,97612.86
2018-01-22T22:45:51.670Z,97614.36
2018-01-22T22:48:22.763Z,97613.80
2018-01-22T22:50:53.894Z,97620.23
2018-01-22T22:53:24.941Z,97630.09
2018-01-22T22:55:55.990Z,97626.78
2018-01-22T22:58:27.369Z,97622.91
2018-01-22T23:00:58.428Z,97637.23
2018-01-22T23:03:29.508Z,97640.22
2018-01-22T23:06:00.554Z,97645.97
2018-01-22T23:08:31.702Z,97650.70
2018-01-22T23:11:02.755Z,97658.38
2018-01-22T23:13:33.857Z,97671.50
2018-01-22T23:16:04.914Z,97689.03
2018-01-22T23:18:35.975Z,97684.97
2018-01-22T23:21:07.083Z,97693.82
2018-01-22T23:23:38.140Z,97692.05
2018-01-22T23:26:09.402Z,97687.17
2018-01-22T23:28:40.417Z,97685.06
2018-01-22T23:31:11.503Z,97695.42
2018-01-22T23:33:42.585Z,97701.52
2018-01-22T23:36:13.664Z,97697.51
2018-01-22T23:38:44.676Z,97693.64
2018-01-22T23:41:15.753Z,97697.45
2018-01-22T23:43:53.834Z,97704.18
2018-01-22T23:46:24.887Z,97716.25
2018-01-22T23:48:55.951Z,97728.38
2018-01-22T23:51:26.997Z,97720.13
2018-01-22T23:53:58.129Z,97713.84
2018-01-22T23:56:29.163Z,97727.86
2018-01-22T23:59:00.257Z,97733.41
